createdAt,value
2023-04-25T00:03:34.228Z,8.05
2023-04-25T00:15:34.336Z,8.03
2023-04-25T00:27:34.722Z,8.01
2023-04-25T00:39:35.230Z,7.64
2023-04-25T00:51:35.618Z,7.67
2023-04-25T01:03:36.213Z,7.77
2023-04-25T01:15:36.600Z,7.60
2023-04-25T01:27:37.027Z,7.59
2023-04-25T01:39:37.444Z,7.35
2023-04-25T01:51:37.898Z,7.43
2023-04-25T02:15:38.903Z,7.05
2023-04-25T02:27:39.268Z,7.03
2023-04-25T02:39:39.687Z,7.02
2023-04-25T02:51:40.201Z,7.13
2023-04-25T03:03:40.695Z,6.81
2023-04-25T03:15:41.076Z,6.90
2023-04-25T03:27:41.534Z,6.91
2023-04-25T03:39:41.998Z,6.69
2023-04-25T03:51:42.464Z,6.27
2023-04-25T04:03:43.028Z,5.81
2023-04-25T04:15:43.356Z,5.51
2023-04-25T04:27:43.794Z,5.36
2023-04-25T04:39:44.281Z,5.35
2023-04-25T04:51:44.683Z,5.06
2023-04-25T05:03:45.288Z,5.20
2023-04-25T05:15:45.616Z,5.10
2023-04-25T05:27:46.098Z,5.64
2023-04-25T05:39:46.501Z,5.82
2023-04-25T05:51:46.941Z,6.37
2023-04-25T06:03:47.779Z,6.74
2023-04-25T06:15:47.916Z,7.52
2023-04-25T06:27:48.329Z,8.42
2023-04-25T06:39:48.779Z,9.41
2023-04-25T06:51:49.222Z,10.15
2023-04-25T07:03:49.868Z,11.21
2023-04-25T07:15:50.117Z,11.61
2023-04-25T07:27:50.587Z,12.39
2023-04-25T07:39:51.029Z,12.66
2023-04-25T07:51:51.489Z,12.99
2023-04-25T08:03:52.074Z,13.34
2023-04-25T08:15:52.885Z,13.88
2023-04-25T08:27:53.009Z,13.74
2023-04-25T08:39:53.407Z,14.14
2023-04-25T08:51:53.890Z,13.85
2023-04-25T09:03:54.280Z,14.37
2023-04-25T09:15:54.636Z,14.38
2023-04-25T09:27:55.145Z,14.58
2023-04-25T09:39:55.583Z,14.57
2023-04-25T09:51:56.072Z,14.85
2023-04-25T10:03:56.619Z,14.51
2023-04-25T10:15:56.960Z,14.01
2023-04-25T10:27:57.407Z,14.25
2023-04-25T10:39:57.830Z,15.26
2023-04-25T10:51:58.280Z,15.36
2023-04-25T11:03:58.893Z,14.94
2023-04-25T11:16:07.411Z,14.47
2023-04-25T11:27:59.684Z,14.70
2023-04-25T11:40:00.121Z,17.41
2023-04-25T11:52:00.581Z,17.79
2023-04-25T12:04:01.184Z,19.09
2023-04-25T12:16:01.545Z,19.21
2023-04-25T12:28:01.916Z,15.73
2023-04-25T12:40:02.406Z,15.71
2023-04-25T12:52:02.818Z,15.26
2023-04-25T13:04:03.546Z,14.80
2023-04-25T13:16:03.788Z,13.42
2023-04-25T13:28:04.201Z,13.35
2023-04-25T13:40:04.624Z,15.39
2023-04-25T13:52:05.095Z,14.92
2023-04-25T14:04:05.643Z,16.06
2023-04-25T14:16:06.054Z,15.25
2023-04-25T14:28:06.443Z,15.93
2023-04-25T14:40:06.909Z,14.61
2023-04-25T14:52:07.379Z,15.63
2023-04-25T15:04:08.076Z,14.14
2023-04-25T15:16:08.348Z,13.55
2023-04-25T15:28:08.735Z,13.53
2023-04-25T15:40:09.191Z,13.52
2023-04-25T15:52:09.673Z,13.41
2023-04-25T16:04:10.314Z,13.66
2023-04-25T16:16:10.602Z,13.59
2023-04-25T16:28:11.010Z,14.44
2023-04-25T16:40:11.523Z,13.61
2023-04-25T16:52:11.914Z,14.48
2023-04-25T17:04:12.416Z,13.40
2023-04-25T17:16:12.892Z,13.02
2023-04-25T17:28:13.293Z,12.83
2023-04-25T17:40:13.720Z,12.18
2023-04-25T17:52:14.202Z,11.42
2023-04-25T18:04:14.677Z,10.94
2023-04-25T18:16:15.134Z,10.62
2023-04-25T18:28:15.542Z,10.48
2023-04-25T18:40:16.039Z,10.18
2023-04-25T18:52:16.460Z,9.90
2023-04-25T19:04:16.972Z,9.67
2023-04-25T19:16:17.435Z,9.53
2023-04-25T19:28:17.853Z,9.31
2023-04-25T19:40:18.262Z,9.32
2023-04-25T19:52:18.745Z,8.57
2023-04-25T20:04:19.205Z,8.62
2023-04-25T20:16:19.865Z,8.80
2023-04-25T20:28:20.075Z,8.13
2023-04-25T20:40:20.530Z,7.68
2023-04-25T20:52:21.001Z,7.20
2023-04-25T21:04:21.524Z,7.50
2023-04-25T21:16:21.894Z,7.07
2023-04-25T21:28:22.362Z,8.07
2023-04-25T21:40:22.805Z,8.12
2023-04-25T21:52:23.256Z,8.29
2023-04-25T22:04:23.830Z,8.41
2023-04-25T22:16:24.221Z,8.24
2023-04-25T22:28:24.615Z,8.01
2023-04-25T22:40:25.076Z,7.86
2023-04-25T22:52:25.525Z,7.78
2023-04-25T23:04:26.135Z,7.53
2023-04-25T23:16:26.450Z,7.40
2023-04-25T23:28:26.860Z,7.46
2023-04-25T23:40:27.302Z,7.07
2023-04-25T23:52:27.778Z,8.21
